Leonia, New Jersey
Current Conditions -  °F | °C
As of 10:51 PM on Wednesday 26 Nov 2014 (Local Time) from KTEB Reporting Station
Light Snow Light Snow  
Wind Chill: 27°   Ceiling: 6000
Heat Index: 35°   Visibility: 6mi
Dew Point: 32°   Wind: 10mph
Humidity: 89%   Direction: 340°NNW
Pressure: 29.82"   Gusts: NA
Location:  40.86°N, 73.99°W
Report Text: KTEB 270351Z 34009KT 6SM -SN FEW012 OVC060 02/00 A2982 RMK AO2 SLP096 P0000 T00170000 $
Loading
Personal Weather Stations






























Interactive Weather Map New forecast layout! Learn more

10-Day Weather Forecast

Advertisements
Track Severe Weather on mobile